Amis Wisdom II — 3FGI2 — position and weather

sailwx.info

Track history (hours):
 
Tides and Currents Weather Stations Pressure Air Temp Water Temp Dewpoint Dewpoint Depression Visibility Wind Speed Wind Dir Waves Ship Positions

Amis Wisdom II

Last reported at 2017-Sep-21 21:21 UTC. Time now 2017-Sep-23 18:17 UTC.
Position S 37°53' E 149°56'.

Length 200 m; draft 6.4 m.

Type: Cargo ship. MMSI: 357086000.

Date/timePositionNaut miles runAvg speedWind from/ knotsBaromVisibWave heightAir tempDewpointWater temp
2017-Sep-21 21:21S 37°53' E 149°56'412.7
2017-Sep-21 21:00S 37°55' E 149°51'7013.0
2017-Sep-21 15:40S 38°35' E 148°38'212.7
2017-Sep-21 15:28S 38°36' E 148°35'  
2017-Sep-17 18:00S 38°04' E 144°45'612.4
2017-Sep-17 17:30S 37°59' E 144°50'1 1.2
2017-Sep-17 16:58S 37°59' E 144°51'0 0.1
2017-Sep-17 16:28S 37°59' E 144°51'0 0.1
2017-Sep-17 15:58S 37°59' E 144°51'0 0.1
2017-Sep-17 15:22S 37°59' E 144°51'0 0.2
2017-Sep-17 14:58S 37°59' E 144°51'0 0.1
2017-Sep-17 14:19S 37°59' E 144°51'0 0.0
2017-Sep-17 13:58S 37°59' E 144°51'0 0.0
2017-Sep-17 13:28S 37°59' E 144°51'0 0.0
2017-Sep-17 12:04S 37°59' E 144°51'0 0.1
2017-Sep-17 11:34S 37°59' E 144°51'0 0.5
2017-Sep-17 11:28S 37°59' E 144°51'0 0.0
2017-Sep-17 10:01S 37°59' E 144°51'0 0.0
2017-Sep-17 09:40S 37°59' E 144°51'0 0.0
2017-Sep-17 08:34S 37°59' E 144°51'0 0.5
2017-Sep-17 08:28S 37°59' E 144°51'0 0.1
2017-Sep-17 07:40S 37°59' E 144°51'0 0.1
2017-Sep-17 07:28S 37°59' E 144°51'0 0.0
2017-Sep-17 06:28S 37°59' E 144°51'0 0.0
2017-Sep-17 03:40S 37°59' E 144°51'0 0.0
2017-Sep-17 03:13S 37°59' E 144°51'0 0.0
2017-Sep-17 02:58S 37°59' E 144°51'0 0.0
2017-Sep-17 02:19S 37°59' E 144°51'0 0.0
2017-Sep-16 20:58S 37°59' E 144°51'0 0.0
2017-Sep-16 20:28S 37°59' E 144°51'0 0.1
2017-Sep-16 19:55S 37°59' E 144°51'0 0.0
2017-Sep-16 11:10S 37°59' E 144°51'0 0.1
2017-Sep-16 10:40S 37°59' E 144°51'0 0.0
2017-Sep-16 09:19S 37°59' E 144°51'0 0.0
2017-Sep-16 06:58S 37°59' E 144°51'0 0.3
2017-Sep-16 06:29S 37°59' E 144°51'2 5.1
2017-Sep-16 06:00S 38°01' E 144°50'813.1
2017-Sep-16 05:23S 38°09' E 144°52'175 7.6
2017-Sep-15 06:23S 38°34' E 148°33'411.0
2017-Sep-15 05:59S 38°31' E 148°38'16 9.7
2017-Sep-15 04:23S 38°24' E 148°55'4 9.8
2017-Sep-15 04:00S 38°22' E 148°59'510.1
2017-Sep-15 03:29S 38°19' E 149°05'5 9.7
2017-Sep-15 03:00S 38°16' E 149°10'5 9.4
2017-Sep-15 02:30S 38°13' E 149°14'328 8.3
2017-Sep-13 11:05S 33°24' E 152°26'112.0
2017-Sep-13 11:01S 33°24' E 152°27'612.5
2017-Sep-13 10:30S 33°18' E 152°30'612.8
2017-Sep-13 10:01S 33°12' E 152°33'713.9
2017-Sep-13 09:30S 33°06' E 152°36'713.6
2017-Sep-13 09:00S 32°59' E 152°39'713.5
2017-Sep-13 08:31S 32°53' E 152°42'713.7
2017-Sep-13 08:00S 32°47' E 152°45'714.7
2017-Sep-13 07:30S 32°40' E 152°49'816.8
2017-Sep-13 07:00S 32°32' E 152°52'816.7
2017-Sep-13 06:30S 32°24' E 152°54'815.4
2017-Sep-13 06:00S 32°17' E 152°57'914.7
2017-Sep-13 05:23S 32°08' E 153°00'1915.3
2017-Sep-13 04:09S 31°50' E 153°05'12514.6
2017-Sep-12 19:34S 29°48' E 153°42'313.9
2017-Sep-12 19:22S 29°46' E 153°43'8013.7
2017-Sep-12 13:33S 28°26' E 153°53'114.2
2017-Sep-12 13:30S 28°26' E 153°53'714.3
2017-Sep-12 13:00S 28°18' E 153°52'714.2
2017-Sep-12 12:30S 28°11' E 153°52'714.5
2017-Sep-12 12:00S 28°04' E 153°52'714.5
2017-Sep-12 11:30S 27°57' E 153°51'714.1
2017-Sep-12 10:59S 27°50' E 153°50'713.9
2017-Sep-12 10:30S 27°43' E 153°50'813.9
2017-Sep-12 09:56S 27°35' E 153°49'714.1
2017-Sep-12 09:26S 27°28' E 153°48'813.8
2017-Sep-12 08:52S 27°20' E 153°48'513.8
2017-Sep-12 08:28S 27°15' E 153°47'1013.4
2017-Sep-12 07:42S 27°05' E 153°46'811.1
2017-Sep-12 06:57S 26°57' E 153°43'30 8.5
2017-Sep-12 03:22S 26°52' E 153°09'512.7
2017-Sep-12 03:00S 26°56' E 153°12'612.3
2017-Sep-12 02:30S 27°02' E 153°15'611.3
2017-Sep-12 02:00S 27°06' E 153°19'5 9.5
2017-Sep-12 01:30S 27°11' E 153°19'612.4
2017-Sep-12 01:00S 27°16' E 153°15'612.5
2017-Sep-12 00:30S 27°21' E 153°11'4 8.6
2017-Sep-12 00:00S 27°25' E 153°09'1 2.9
2017-Sep-11 23:31S 27°26' E 153°07'0 0.0
2017-Sep-11 22:39S 27°26' E 153°07'0 0.0
2017-Sep-11 22:21S 27°26' E 153°07'  
Track history (hours):
 
Tides and Currents Weather Stations Pressure Air Temp Water Temp Dewpoint Dewpoint Depression Visibility Wind Speed Wind Dir Waves Ship Positions

Amis Wisdom II

Last reported at 2017-Sep-21 21:21 UTC. Time now 2017-Sep-23 18:17 UTC.
Position S 37°53' E 149°56'.

Length 200 m; draft 6.4 m.

Type: Cargo ship. MMSI: 357086000.

Date/timePositionNaut miles runAvg speedWind from/ knotsBaromVisibWave heightAir tempDewpointWater temp
2017-Sep-21 21:21S 37°53' E 149°56'412.7
2017-Sep-21 21:00S 37°55' E 149°51'7013.0
2017-Sep-21 15:40S 38°35' E 148°38'212.7
2017-Sep-21 15:28S 38°36' E 148°35'  
2017-Sep-17 18:00S 38°04' E 144°45'612.4
2017-Sep-17 17:30S 37°59' E 144°50'1 1.2
2017-Sep-17 16:58S 37°59' E 144°51'0 0.1
2017-Sep-17 16:28S 37°59' E 144°51'0 0.1
2017-Sep-17 15:58S 37°59' E 144°51'0 0.1
2017-Sep-17 15:22S 37°59' E 144°51'0 0.2
2017-Sep-17 14:58S 37°59' E 144°51'0 0.1
2017-Sep-17 14:19S 37°59' E 144°51'0 0.0
2017-Sep-17 13:58S 37°59' E 144°51'0 0.0
2017-Sep-17 13:28S 37°59' E 144°51'0 0.0
2017-Sep-17 12:04S 37°59' E 144°51'0 0.1
2017-Sep-17 11:34S 37°59' E 144°51'0 0.5
2017-Sep-17 11:28S 37°59' E 144°51'0 0.0
2017-Sep-17 10:01S 37°59' E 144°51'0 0.0
2017-Sep-17 09:40S 37°59' E 144°51'0 0.0
2017-Sep-17 08:34S 37°59' E 144°51'0 0.5
2017-Sep-17 08:28S 37°59' E 144°51'0 0.1
2017-Sep-17 07:40S 37°59' E 144°51'0 0.1
2017-Sep-17 07:28S 37°59' E 144°51'0 0.0
2017-Sep-17 06:28S 37°59' E 144°51'0 0.0
2017-Sep-17 03:40S 37°59' E 144°51'0 0.0
2017-Sep-17 03:13S 37°59' E 144°51'0 0.0
2017-Sep-17 02:58S 37°59' E 144°51'0 0.0
2017-Sep-17 02:19S 37°59' E 144°51'0 0.0
2017-Sep-16 20:58S 37°59' E 144°51'0 0.0
2017-Sep-16 20:28S 37°59' E 144°51'0 0.1
2017-Sep-16 19:55S 37°59' E 144°51'0 0.0
2017-Sep-16 11:10S 37°59' E 144°51'0 0.1
2017-Sep-16 10:40S 37°59' E 144°51'0 0.0
2017-Sep-16 09:19S 37°59' E 144°51'0 0.0
2017-Sep-16 06:58S 37°59' E 144°51'0 0.3
2017-Sep-16 06:29S 37°59' E 144°51'2 5.1
2017-Sep-16 06:00S 38°01' E 144°50'813.1
2017-Sep-16 05:23S 38°09' E 144°52'175 7.6
2017-Sep-15 06:23S 38°34' E 148°33'411.0
2017-Sep-15 05:59S 38°31' E 148°38'16 9.7
2017-Sep-15 04:23S 38°24' E 148°55'4 9.8
2017-Sep-15 04:00S 38°22' E 148°59'510.1
2017-Sep-15 03:29S 38°19' E 149°05'5 9.7
2017-Sep-15 03:00S 38°16' E 149°10'5 9.4
2017-Sep-15 02:30S 38°13' E 149°14'328 8.3
2017-Sep-13 11:05S 33°24' E 152°26'112.0
2017-Sep-13 11:01S 33°24' E 152°27'612.5
2017-Sep-13 10:30S 33°18' E 152°30'612.8
2017-Sep-13 10:01S 33°12' E 152°33'713.9
2017-Sep-13 09:30S 33°06' E 152°36'713.6
2017-Sep-13 09:00S 32°59' E 152°39'713.5
2017-Sep-13 08:31S 32°53' E 152°42'713.7
2017-Sep-13 08:00S 32°47' E 152°45'714.7
2017-Sep-13 07:30S 32°40' E 152°49'816.8
2017-Sep-13 07:00S 32°32' E 152°52'816.7
2017-Sep-13 06:30S 32°24' E 152°54'815.4
2017-Sep-13 06:00S 32°17' E 152°57'914.7
2017-Sep-13 05:23S 32°08' E 153°00'1915.3
2017-Sep-13 04:09S 31°50' E 153°05'12514.6
2017-Sep-12 19:34S 29°48' E 153°42'313.9
2017-Sep-12 19:22S 29°46' E 153°43'8013.7
2017-Sep-12 13:33S 28°26' E 153°53'114.2
2017-Sep-12 13:30S 28°26' E 153°53'714.3
2017-Sep-12 13:00S 28°18' E 153°52'714.2
2017-Sep-12 12:30S 28°11' E 153°52'714.5
2017-Sep-12 12:00S 28°04' E 153°52'714.5
2017-Sep-12 11:30S 27°57' E 153°51'714.1
2017-Sep-12 10:59S 27°50' E 153°50'713.9
2017-Sep-12 10:30S 27°43' E 153°50'813.9
2017-Sep-12 09:56S 27°35' E 153°49'714.1
2017-Sep-12 09:26S 27°28' E 153°48'813.8
2017-Sep-12 08:52S 27°20' E 153°48'513.8
2017-Sep-12 08:28S 27°15' E 153°47'1013.4
2017-Sep-12 07:42S 27°05' E 153°46'811.1
2017-Sep-12 06:57S 26°57' E 153°43'30 8.5
2017-Sep-12 03:22S 26°52' E 153°09'512.7
2017-Sep-12 03:00S 26°56' E 153°12'612.3
2017-Sep-12 02:30S 27°02' E 153°15'611.3
2017-Sep-12 02:00S 27°06' E 153°19'5 9.5
2017-Sep-12 01:30S 27°11' E 153°19'612.4
2017-Sep-12 01:00S 27°16' E 153°15'612.5
2017-Sep-12 00:30S 27°21' E 153°11'4 8.6
2017-Sep-12 00:00S 27°25' E 153°09'1 2.9
2017-Sep-11 23:31S 27°26' E 153°07'0 0.0
2017-Sep-11 22:39S 27°26' E 153°07'0 0.0
2017-Sep-11 22:21S 27°26' E 153°07'  

Dump ship's entire track history